PRMCM VNLK-VNRT
Flight info
| Callsign | PRMCM |
|---|---|
| Flight time | 0h 23m |
| Altitude | 13500 |
| Route | DCT |
| Aircraft | PA34/L-SDFG/C |
Departure
| Time | 2026-01-11 04:01 |
|---|---|
| Airport | Tenzing-Hillary Airport (VNLK) |
Arrival
| Time | 2026-01-11 04:24 |
|---|---|
| Airport | Rumjatar Airport (VNRT) |
| Time | Latitude | Longitude | Altitude | Speed | Heading |
|---|---|---|---|---|---|
| 2026-01-11 03:50 | 27.66997 | 86.73555 | 10003 ft | 0 kts | 240° |
| 2026-01-11 03:56 | 27.66949 | 86.73583 | 10003 ft | 2 kts | 197° |
| 2026-01-11 03:56 | 27.66918 | 86.73537 | 10003 ft | 25 kts | 238° |
| 2026-01-11 03:57 | 27.66541 | 86.72555 | 10024 ft | 101 kts | 265° |
| 2026-01-11 03:57 | 27.65760 | 86.70900 | 10151 ft | 142 kts | 218° |
| 2026-01-11 03:58 | 27.63838 | 86.69658 | 10095 ft | 174 kts | 203° |
| 2026-01-11 03:58 | 27.62689 | 86.69190 | 10026 ft | 179 kts | 199° |
| 2026-01-11 03:59 | 27.60298 | 86.68441 | 9973 ft | 181 kts | 191° |
| 2026-01-11 03:59 | 27.57893 | 86.68659 | 10149 ft | 173 kts | 165° |
| 2026-01-11 04:00 | 27.55885 | 86.68407 | 10115 ft | 176 kts | 276° |
| 2026-01-11 04:00 | 27.57916 | 86.68424 | 10256 ft | 167 kts | 22° |
| 2026-01-11 04:01 | 27.60089 | 86.69255 | 10433 ft | 166 kts | 20° |
| 2026-01-11 04:01 | 27.62210 | 86.70207 | 10699 ft | 159 kts | 23° |
| 2026-01-11 04:02 | 27.63562 | 86.68702 | 11314 ft | 151 kts | 228° |
| 2026-01-11 04:02 | 27.62591 | 86.68388 | 11243 ft | 165 kts | 149° |
| 2026-01-11 04:03 | 27.63163 | 86.70364 | 11460 ft | 162 kts | 40° |
| 2026-01-11 04:03 | 27.66060 | 86.72563 | 11593 ft | 173 kts | 33° |
| 2026-01-11 04:04 | 27.67585 | 86.73963 | 11870 ft | 158 kts | 9° |
| 2026-01-11 04:04 | 27.68098 | 86.72049 | 10590 ft | 212 kts | 221° |
| 2026-01-11 04:05 | 27.65999 | 86.70017 | 10820 ft | 185 kts | 232° |
| 2026-01-11 04:05 | 27.67093 | 86.68522 | 11242 ft | 165 kts | 25° |
| 2026-01-11 04:06 | 27.67538 | 86.70749 | 10993 ft | 185 kts | 156° |
| 2026-01-11 04:06 | 27.66262 | 86.70523 | 10795 ft | 190 kts | 199° |
| 2026-01-11 04:06 | 27.63785 | 86.69657 | 10927 ft | 181 kts | 194° |
| 2026-01-11 04:07 | 27.61352 | 86.69012 | 11036 ft | 177 kts | 188° |
| 2026-01-11 04:08 | 27.57686 | 86.68626 | 11185 ft | 174 kts | 187° |
| 2026-01-11 04:08 | 27.55250 | 86.68242 | 11144 ft | 178 kts | 189° |
| 2026-01-11 04:09 | 27.53008 | 86.67223 | 11289 ft | 172 kts | 226° |
| 2026-01-11 04:09 | 27.51474 | 86.65163 | 11462 ft | 174 kts | 232° |
| 2026-01-11 04:09 | 27.50654 | 86.64179 | 11544 ft | 175 kts | 221° |
| 2026-01-11 04:10 | 27.48008 | 86.61204 | 11657 ft | 178 kts | 229° |
| 2026-01-11 04:10 | 27.47199 | 86.60181 | 11763 ft | 175 kts | 228° |
| 2026-01-11 04:11 | 27.45548 | 86.58155 | 11958 ft | 171 kts | 227° |
| 2026-01-11 04:12 | 27.42912 | 86.55590 | 12053 ft | 181 kts | 207° |
| 2026-01-11 04:12 | 27.40631 | 86.54284 | 12006 ft | 186 kts | 206° |
| 2026-01-11 04:13 | 27.38296 | 86.52860 | 11770 ft | 195 kts | 206° |
| 2026-01-11 04:13 | 27.35570 | 86.52219 | 11312 ft | 205 kts | 173° |
| 2026-01-11 04:14 | 27.32796 | 86.52707 | 11288 ft | 192 kts | 171° |
| 2026-01-11 04:14 | 27.31842 | 86.52888 | 10972 ft | 205 kts | 170° |
| 2026-01-11 04:14 | 27.29237 | 86.52300 | 10039 ft | 211 kts | 253° |
| 2026-01-11 04:15 | 27.31077 | 86.50256 | 9005 ft | 213 kts | 344° |
| 2026-01-11 04:15 | 27.33653 | 86.50551 | 8369 ft | 178 kts | 59° |
| 2026-01-11 04:16 | 27.32189 | 86.53939 | 6407 ft | 164 kts | 135° |
| 2026-01-11 04:17 | 27.30488 | 86.55584 | 5773 ft | 155 kts | 138° |
| 2026-01-11 04:17 | 27.29102 | 86.56935 | 5440 ft | 115 kts | 151° |
| 2026-01-11 04:17 | 27.28370 | 86.57217 | 5203 ft | 111 kts | 170° |
| 2026-01-11 04:18 | 27.27220 | 86.56409 | 4722 ft | 96 kts | 267° |
| 2026-01-11 04:18 | 27.28085 | 86.55431 | 4664 ft | 97 kts | 351° |
| 2026-01-11 04:19 | 27.29508 | 86.55219 | 4710 ft | 112 kts | 352° |
| 2026-01-11 04:19 | 27.30880 | 86.55010 | 4488 ft | 93 kts | 353° |
| 2026-01-11 04:20 | 27.31888 | 86.53551 | 5375 ft | 117 kts | 219° |
| 2026-01-11 04:21 | 27.30123 | 86.53685 | 5322 ft | 130 kts | 161° |
| 2026-01-11 04:21 | 27.29348 | 86.54023 | 5284 ft | 107 kts | 157° |
| 2026-01-11 04:21 | 27.28110 | 86.54673 | 5223 ft | 95 kts | 151° |
| 2026-01-11 04:22 | 27.28254 | 86.55430 | 4948 ft | 102 kts | 342° |
| 2026-01-11 04:22 | 27.29642 | 86.55199 | 4658 ft | 100 kts | 352° |
| 2026-01-11 04:23 | 27.30673 | 86.55030 | 4504 ft | 25 kts | 351° |
| 2026-01-11 04:23 | 27.30663 | 86.55019 | 4504 ft | 17 kts | 170° |
| 2026-01-11 04:24 | 27.30365 | 86.55043 | 4504 ft | 0 kts | 255° |